• Join FlightAware (Why Join?)
  • Login
  • US Flag 
12:13AM EDT


 

Airport Tracker/Info


-or-


 

Live Flight TrackerFlight Track Log ✈ UCA590 ✈ 17-May-2013 ✈ KCLE - KBWI

Flight Track Log - Related Links

Times and Time Zones

All times are in EDT time to prevent confusion due to time zone crossing. See the UCA590 flight status page for this flight to view local times or setup timezone preferences in your user account.

Time Position Orientation Groundspeed Altitude Reporting Facility
EDT Latitude Longitude Course Direction KTS MPH feet Rate Location/Type
01:15PM 41.4111 -81.8372 80° East 129 148 1,800  Level Cleveland Center
01:15PM 41.4133 -81.8208 80° East 129 148 2,000 660 Climbing Cleveland Center
01:16PM 41.4119 -81.7569 92° East 219 252 2,700 780 Climbing Cleveland Center
01:17PM 41.4019 -81.7181 109° East 212 244 3,200 1,080 Climbing Cleveland Center
01:17PM 41.3747 -81.7231 188° South 202 232 3,800 960 Climbing Cleveland Center
01:18PM 41.3519 -81.7144 164° South 200 230 4,200 960 Climbing Cleveland Center
01:18PM 41.3253 -81.6808 137° Southeast 204 235 4,900 900 Climbing Cleveland Center
01:19PM 41.3150 -81.6614 125° Southeast 227 261 5,100 840 Climbing Cleveland Center
01:19PM 41.2964 -81.6222 122° Southeast 225 259 5,700 900 Climbing Cleveland Center
01:20PM 41.2864 -81.5972 118° Southeast 217 250 6,000 900 Climbing Cleveland Center
01:21PM 41.2556 -81.5278 121° Southeast 229 264 7,000 960 Climbing Cleveland Center
01:22PM 41.2208 -81.4528 122° Southeast 229 264 8,000 960 Climbing Cleveland Center
01:23PM 41.1881 -81.3833 122° Southeast 229 264 9,000 960 Climbing Cleveland Center
01:24PM 41.1572 -81.3111 120° Southeast 229 264 10,000 900 Climbing Cleveland Center
01:25PM 41.1242 -81.2419 122° Southeast 229 264 10,900 900 Climbing Cleveland Center
01:26PM 41.0808 -81.1892 137° Southeast 229 264 11,800 840 Climbing Cleveland Center
01:27PM 41.0203 -81.1719 168° South 213 245 12,600 840 Climbing Cleveland Center
01:28PM 40.9622 -81.1494 164° South 218 251 13,500 780 Climbing Cleveland Center
01:29PM 40.9017 -81.1297 166° South 226 260 14,200 660 Climbing Cleveland Center
01:30PM 40.8436 -81.1072 164° South 221 254 14,900 600 Climbing Cleveland Center
01:31PM 40.7872 -81.0903 167° South 221 254 15,500 600 Climbing Cleveland Center
01:32PM 40.7289 -81.0681 164° South 221 254 16,200 600 Climbing Cleveland Center
01:33PM 40.6708 -81.0431 162° South 221 254 16,800 360 Climbing Cleveland Center
01:34PM 40.6083 -81.0233 167° South 221 254 17,000 60 Climbing Cleveland Center
01:35PM 40.5397 -80.9983 165° South 242 278 17,000  Level Cleveland Center
01:36PM 40.4689 -80.9733 165° South 254 292 17,000  Level Cleveland Center
01:37PM 40.3939 -80.9456 164° South 264 304 17,000  Level Cleveland Center
01:38PM 40.3128 -80.9181 166° South 274 315 17,000  Level Cleveland Center
01:39PM 40.2481 -80.8661 149° Southeast 274 315 17,000  Level Cleveland Center
01:40PM 40.1983 -80.7869 129° Southeast 269 310 17,000  Level Cleveland Center
01:41PM 40.1464 -80.7133 133° Southeast 274 315 17,000  Level Cleveland Center
01:42PM 40.0942 -80.6347 131° Southeast 280 322 17,000  Level Cleveland Center
01:43PM 40.0422 -80.5614 133° Southeast 280 322 17,000  Level Cleveland Center
01:44PM 39.9900 -80.4856 132° Southeast 280 322 17,000  Level Cleveland Center
01:45PM 39.9378 -80.4069 131° Southeast 285 328 17,000  Level Cleveland Center
01:46PM 39.8856 -80.3314 132° Southeast 285 328 17,000  Level Cleveland Center
01:47PM 39.8353 -80.2586 132° Southeast 285 328 17,000  Level Cleveland Center
01:48PM 39.7956 -80.1725 121° Southeast 285 328 17,000  Level Cleveland Center
01:49PM 39.7806 -80.0725 101° East 274 315 17,000  Level Cleveland Center
01:50PM 39.7633 -79.9728 103° East 274 315 17,000  Level Cleveland Center
01:51PM 39.7461 -79.8731 103° East 274 315 17,000  Level Cleveland Center
01:52PM 39.7286 -79.7733 103° East 280 322 17,000  Level Cleveland Center
01:53PM 39.7133 -79.6764 102° East 280 322 17,000  Level Cleveland Center
01:54PM 39.6922 -79.5558 103° East 279 321 17,000  Level Washington Center
01:55PM 39.6747 -79.4550 103° East 279 321 17,000  Level Washington Center
01:56PM 39.6592 -79.3544 101° East 279 321 17,000  Level Washington Center
01:57PM 39.6414 -79.2539 103° East 279 321 17,000  Level Washington Center
01:58PM 39.6236 -79.1533 103° East 279 321 17,000  Level Washington Center
01:59PM 39.6078 -79.0500 101° East 279 321 17,000 -60 Level Washington Center
02:00PM 39.5839 -78.9386 106° East 285 328 16,900 -60 Descending Washington Center
02:01PM 39.5658 -78.8353 103° East 290 334 16,900 -540 Level Washington Center
02:02PM 39.5478 -78.7297 102° East 290 334 15,900 -1,380 Descending Washington Center
02:03PM 39.5278 -78.6211 103° East 296 341 14,200 -1,800 Descending Washington Center
02:04PM 39.5075 -78.5153 104° East 301 346 12,300 -1,860 Descending Washington Center
02:05PM 39.4869 -78.4122 104° East 301 346 10,500 -1,680 Descending Washington Center
02:06PM 39.4725 -78.3175 101° East 289 333 9,000 -840 Descending Washington Center
02:07PM 39.4556 -78.2283 104° East 269 310 8,900 -60 Descending Washington Center
02:08PM 39.4389 -78.1336 103° East 264 304 8,900 -600 Level Washington Center
02:09PM 39.4200 -78.0389 104° East 264 304 7,800 -1,200 Descending Washington Center
02:10PM 39.4011 -77.9444 104° East 269 310 6,600 -1,200 Descending Washington Center
02:11PM 39.3842 -77.8497 103° East 269 310 5,500 -840 Descending Washington Center
02:12PM 39.3961 -77.7589 80° East 258 297 5,000 -300 Descending Washington Center
02:13PM 39.4083 -77.6706 80° East 253 291 5,000  Level Washington Center
02:14PM 39.4181 -77.5794 82° East 253 291 5,000 -60 Level Washington Center
02:16PM 39.4500 -77.4000 77° East 253 291 4,900  Descending Potomac TRACON
02:17PM 39.4500 -77.3167 90° East 257 296 5,000  Climbing Potomac TRACON
02:18PM 39.4667 -77.2167 78° East 253 291 5,000  Level Potomac TRACON
02:19PM 39.4833 -77.1333 75° East 255 293 5,000  Level Potomac TRACON
02:20PM 39.5000 -77.0500 75° East 256 295 5,000 -60 Level Potomac TRACON
02:21PM 39.5333 -76.9667 63° Northeast 261 300 4,900  Descending Potomac TRACON
02:22PM 39.5500 -76.8833 75° East 264 304 5,000  Climbing Potomac TRACON
02:23PM 39.5500 -76.7833 90° East 265 305 4,900 -60 Descending Potomac TRACON
02:24PM 39.5167 -76.7000 117° Southeast 259 298 4,900 -60 Level Potomac TRACON
02:25PM 39.4667 -76.6333 134° Southeast 261 300 4,800 -540 Descending Potomac TRACON
02:26PM 39.4000 -76.5667 142° Southeast 264 304 3,900 -480 Descending Potomac TRACON
02:27PM 39.3500 -76.5000 134° Southeast 250 288 3,900 -480 Level Potomac TRACON
02:28PM 39.3000 -76.4833 166° South 244 281 3,000 -540 Descending Potomac TRACON
02:29PM 39.2333 -76.4833 180° South 241 277 2,900 -480 Descending Potomac TRACON
02:30PM 39.1667 -76.5167 201° Southwest 231 266 2,100 -540 Descending Potomac TRACON
02:31PM 39.1167 -76.5500 207° Southwest 214 246 1,900 -300 Descending Potomac TRACON
02:32PM 39.1000 -76.6000 247° West 192 221 1,600 -600 Descending Potomac TRACON
02:33PM 39.1333 -76.6333 322° Northwest 140 161 700 -900 Descending Potomac TRACON